Detalii statie MIRACOM [00001CFF]

Toti senzorii

Date Temperatura solului [C]Precipitatii [mm]Voltaj baterie [mV]Leaf Wetness [Min]HC Air temperature [C]HC Relative humidity [%]Punctul de roua [C]
medieminmaxsumaultimatimpmedieminmaxmediemediemin
2018-02-23 13:00:00 1.7 1.3 2.2 0.6 7362 0.94 0.5 1.22 0 0 0
2018-02-23 14:00:00 2.6 2.3 3.1 0.6 7372 1.78 1.15 2.6 0 0 0
2018-02-23 15:00:00 3.4 3.1 3.6 0.2 7332 1.67 1.37 2.1 0 0 0
2018-02-23 16:00:00 3.4 3.3 3.5 0 7274 1.45 1.28 1.64 0 0 0
2018-02-23 17:00:00 3.2 3 3.4 0 7196 1.05 0.84 1.23 0 0 0
2018-02-23 18:00:00 2.7 2.6 3.1 0 7108 0.62 0.47 0.8 0 0 0
2018-02-23 19:00:00 2.3 2.1 2.6 0 7080 0.37 0.34 0.44 0 0 0
2018-02-23 20:00:00 2 1.8 2.2 0 7060 0.29 0.23 0.36 0 0 0
2018-02-23 21:00:00 1.7 1.4 2 0 7050 0.12 0.06 0.21 0 0 0
2018-02-23 22:00:00 1.4 1.3 1.6 0 7040 -0.01 -0.11 0.08 0 0 0
2018-02-23 23:00:00 1.2 1.1 1.4 0 7030 -0.17 -0.26 -0.11 0 0 0
2018-02-24 00:00:00 1.1 1.1 1.2 0 7010 -0.37 -0.49 -0.31 0 0 0
2018-02-24 01:00:00 1.1 1 1.2 0 7010 -0.44 -0.7 -0.26 0 0 0
2018-02-24 02:00:00 0.9 0.9 1 0 7000 -0.28 -0.44 -0.19 0 0 0
2018-02-24 03:00:00 0.8 0.7 1 0 6992 -0.3 -0.45 -0.24 0 0 0
2018-02-24 04:00:00 0.8 0.7 1 0 6992 -0.27 -0.32 -0.25 0 0 0
2018-02-24 05:00:00 0.7 0.7 0.9 0 6982 -0.15 -0.22 -0.11 0 0 0
2018-02-24 06:00:00 0.7 0.7 0.8 0 6972 -0.06 -0.11 -0.04 0 0 0
2018-02-24 07:00:00 0.7 0.6 1 0 6962 -0.06 -0.12 -0.01 0 0 0
2018-02-24 08:00:00 0.7 0.6 0.9 0 6952 0.05 -0.01 0.13 0 0 0
2018-02-24 09:00:00 0.7 0.7 0.8 0 6942 0.11 0.1 0.14 0 0 0
2018-02-24 10:00:00 0.7 0.7 1 0 6962 0.16 0.1 0.24 0 0 0
2018-02-24 11:00:00 0.8 0.7 0.9 0 6992 0.24 0.09 0.31 0 0 0
2018-02-24 12:00:00 0.8 0.8 0.9 0 7020 0.14 0.05 0.31 0 0 0
2018-02-24 13:00:00 0.8 0.8 1 0 7108 -0.18 -0.48 0.14 0 0 0
2018-02-24 14:00:00 0.9 0.8 1 0 7176 -0.53 -0.64 -0.36 0 0 0
2018-02-24 15:00:00 0.9 0.8 1 0 7246 -0.63 -0.79 -0.47 0 0 0
2018-02-24 16:00:00 0.9 0.8 1 0 7216 -0.93 -1.29 -0.6 0 0 0
2018-02-24 17:00:00 0.8 0.6 1 0 7148 -1.5 -1.83 -1.27 0 0 0
2018-02-24 18:00:00 0.5 0.5 0.7 0 7060 -2.04 -2.33 -1.84 0 0 0
2018-02-24 19:00:00 0.4 0.3 0.5 0 7000 -2.69 -2.89 -2.44 0 0 0
2018-02-24 20:00:00 0.2 0.2 0.4 0 6982 -3.18 -3.5 -2.88 0 0 0
2018-02-24 21:00:00 0.1 0.1 0.4 0 6942 -3.5 -3.61 -3.36 0 0 0
2018-02-24 22:00:00 0.1 0 0.3 0 6932 -3.66 -3.79 -3.57 0 0 0
2018-02-24 23:00:00 0 0 0.2 0 6922 -3.72 -3.78 -3.68 0 0 0
2018-02-25 00:00:00 0 0 0.1 0 6904 -3.81 -3.86 -3.75 0 0 0
2018-02-25 01:00:00 0 -0.1 0 0 6894 -3.91 -4.06 -3.84 0 0 0
2018-02-25 02:00:00 0 -0.1 0.1 0 6894 -4.29 -4.49 -4.09 0 0 0
2018-02-25 03:00:00 0 -0.1 0 0 6884 -4.71 -4.94 -4.52 0 0 0
2018-02-25 04:00:00 0 -0.1 0 0 6874 -5.12 -5.28 -4.96 0 0 0
2018-02-25 05:00:00 -0.1 -0.2 0 0 6864 -5.53 -5.72 -5.36 0 0 0
2018-02-25 06:00:00 -0.1 -0.2 -0.1 0 6864 -5.95 -6.11 -5.8 0 0 0
2018-02-25 07:00:00 -0.1 -0.4 -0.1 0 6874 -6.12 -6.19 -6.06 0 0 0
2018-02-25 08:00:00 -0.2 -0.4 -0.1 0 6914 -5.96 -6.03 -5.9 0 0 0
2018-02-25 09:00:00 -0.2 -0.4 -0.1 0 7118 -5.56 -5.94 -5.25 0 0 0
2018-02-25 10:00:00 -0.2 -0.4 -0.2 0 7352 -4.58 -5.07 -4.01 0 0 0
2018-02-25 11:00:00 -0.2 -0.4 -0.2 0 7372 -3.91 -4.17 -3.59 0 0 0
2018-02-25 12:00:00 -0.2 -0.4 -0.2 0 7352 -3.07 -3.43 -2.7 0 0 0